sensor_id;sensor_type;location;lat;lon;timestamp;P1;P2;P0
72031;PMS5003;49185;42.320;23.198;2023-03-14T00:02:16;22.33;19.33;11.67
72031;PMS5003;49185;42.320;23.198;2023-03-14T00:04:42;15.00;14.00;7.00
72031;PMS5003;49185;42.320;23.198;2023-03-14T00:07:07;14.00;13.00;5.33
72031;PMS5003;49185;42.320;23.198;2023-03-14T00:09:35;13.00;12.25;5.75
72031;PMS5003;49185;42.320;23.198;2023-03-14T00:12:00;14.00;12.00;4.33
72031;PMS5003;49185;42.320;23.198;2023-03-14T00:14:26;14.75;13.50;6.00
72031;PMS5003;49185;42.320;23.198;2023-03-14T00:16:52;15.00;15.00;6.00
72031;PMS5003;49185;42.320;23.198;2023-03-14T00:19:17;18.33;17.33;7.33
72031;PMS5003;49185;42.320;23.198;2023-03-14T00:21:43;19.00;17.00;9.33
72031;PMS5003;49185;42.320;23.198;2023-03-14T00:24:08;23.00;21.33;10.00
72031;PMS5003;49185;42.320;23.198;2023-03-14T00:26:34;35.67;29.00;17.33
72031;PMS5003;49185;42.320;23.198;2023-03-14T00:28:59;45.00;34.33;21.67
72031;PMS5003;49185;42.320;23.198;2023-03-14T00:31:24;40.00;31.67;20.00
72031;PMS5003;49185;42.320;23.198;2023-03-14T00:33:51;28.67;25.33;16.00
72031;PMS5003;49185;42.320;23.198;2023-03-14T00:36:17;17.00;17.00;10.00
72031;PMS5003;49185;42.320;23.198;2023-03-14T00:38:45;15.00;14.00;6.00
72031;PMS5003;49185;42.320;23.198;2023-03-14T00:41:13;13.00;13.00;4.00
72031;PMS5003;49185;42.320;23.198;2023-03-14T00:43:43;13.00;11.00;3.50
72031;PMS5003;49185;42.320;23.198;2023-03-14T00:46:09;11.00;10.00;4.00
72031;PMS5003;49185;42.320;23.198;2023-03-14T00:48:35;8.00;7.00;3.00
72031;PMS5003;49185;42.320;23.198;2023-03-14T00:51:01;7.00;6.00;3.00
72031;PMS5003;49185;42.320;23.198;2023-03-14T00:53:28;5.50;5.25;1.00
72031;PMS5003;49185;42.320;23.198;2023-03-14T00:55:53;6.00;4.00;0.00
72031;PMS5003;49185;42.320;23.198;2023-03-14T00:58:19;4.00;4.00;0.00
72031;PMS5003;49185;42.320;23.198;2023-03-14T01:00:45;4.00;3.33;0.00
72031;PMS5003;49185;42.320;23.198;2023-03-14T01:03:11;4.75;4.75;0.00
72031;PMS5003;49185;42.320;23.198;2023-03-14T01:05:38;6.50;6.00;1.00
72031;PMS5003;49185;42.320;23.198;2023-03-14T01:08:04;7.00;6.33;3.00
72031;PMS5003;49185;42.320;23.198;2023-03-14T01:10:30;6.00;6.00;3.00
72031;PMS5003;49185;42.320;23.198;2023-03-14T01:12:56;5.50;4.50;3.00
72031;PMS5003;49185;42.320;23.198;2023-03-14T01:15:21;6.33;6.33;2.00
72031;PMS5003;49185;42.320;23.198;2023-03-14T01:17:47;8.67;8.33;3.67
72031;PMS5003;49185;42.320;23.198;2023-03-14T01:20:13;10.75;10.00;4.25
72031;PMS5003;49185;42.320;23.198;2023-03-14T01:22:40;10.25;10.00;4.00
72031;PMS5003;49185;42.320;23.198;2023-03-14T01:25:07;9.00;8.50;3.00
72031;PMS5003;49185;42.320;23.198;2023-03-14T01:27:34;8.00;7.00;3.00
72031;PMS5003;49185;42.320;23.198;2023-03-14T01:30:00;10.33;9.00;3.67
72031;PMS5003;49185;42.320;23.198;2023-03-14T01:32:25;12.00;11.00;4.33
72031;PMS5003;49185;42.320;23.198;2023-03-14T01:34:51;13.00;12.00;4.00
72031;PMS5003;49185;42.320;23.198;2023-03-14T01:37:17;15.25;13.50;6.00
72031;PMS5003;49185;42.320;23.198;2023-03-14T01:39:42;14.33;13.00;6.00
72031;PMS5003;49185;42.320;23.198;2023-03-14T01:42:08;17.33;15.67;8.33
72031;PMS5003;49185;42.320;23.198;2023-03-14T01:47:18;20.00;19.00;10.00
72031;PMS5003;49185;42.320;23.198;2023-03-14T01:49:45;18.75;18.00;9.00
72031;PMS5003;49185;42.320;23.198;2023-03-14T01:54:55;11.75;10.75;4.00
72031;PMS5003;49185;42.320;23.198;2023-03-14T01:57:37;7.75;7.00;3.00
72031;PMS5003;49185;42.320;23.198;2023-03-14T02:00:10;6.25;6.00;2.25
72031;PMS5003;49185;42.320;23.198;2023-03-14T02:02:37;7.00;6.00;3.50
72031;PMS5003;49185;42.320;23.198;2023-03-14T02:05:06;10.50;9.00;5.00
72031;PMS5003;49185;42.320;23.198;2023-03-14T02:07:37;10.50;9.00;4.50
72031;PMS5003;49185;42.320;23.198;2023-03-14T02:10:11;11.50;9.25;3.25
72031;PMS5003;49185;42.320;23.198;2023-03-14T02:12:37;11.00;9.50;4.00
72031;PMS5003;49185;42.320;23.198;2023-03-14T02:15:04;9.00;8.00;3.00
72031;PMS5003;49185;42.320;23.198;2023-03-14T02:17:29;8.75;6.25;3.75
72031;PMS5003;49185;42.320;23.198;2023-03-14T02:20:16;9.33;7.67;4.00
72031;PMS5003;49185;42.320;23.198;2023-03-14T02:23:10;9.00;8.00;3.00
72031;PMS5003;49185;42.320;23.198;2023-03-14T02:25:46;9.50;6.00;4.00
72031;PMS5003;49185;42.320;23.198;2023-03-14T02:28:34;8.00;6.75;3.00
72031;PMS5003;49185;42.320;23.198;2023-03-14T02:30:59;12.00;10.50;5.50
72031;PMS5003;49185;42.320;23.198;2023-03-14T02:33:25;13.00;13.00;6.00
72031;PMS5003;49185;42.320;23.198;2023-03-14T02:35:58;12.50;12.00;5.50
72031;PMS5003;49185;42.320;23.198;2023-03-14T02:38:28;9.00;9.00;5.00
72031;PMS5003;49185;42.320;23.198;2023-03-14T02:41:02;8.00;7.00;3.00
72031;PMS5003;49185;42.320;23.198;2023-03-14T02:43:29;6.00;6.00;3.00
72031;PMS5003;49185;42.320;23.198;2023-03-14T02:45:54;6.00;5.33;3.00
72031;PMS5003;49185;42.320;23.198;2023-03-14T02:48:24;5.50;5.00;3.00
72031;PMS5003;49185;42.320;23.198;2023-03-14T02:50:57;5.00;5.00;1.00
72031;PMS5003;49185;42.320;23.198;2023-03-14T02:53:26;3.00;3.00;0.00
72031;PMS5003;49185;42.320;23.198;2023-03-14T02:55:53;3.00;3.00;0.50
72031;PMS5003;49185;42.320;23.198;2023-03-14T02:58:18;3.00;3.00;1.00
72031;PMS5003;49185;42.320;23.198;2023-03-14T03:00:44;5.00;3.75;1.00
72031;PMS5003;49185;42.320;23.198;2023-03-14T03:03:10;3.00;3.00;1.00
72031;PMS5003;49185;42.320;23.198;2023-03-14T03:05:36;3.00;3.00;1.00
72031;PMS5003;49185;42.320;23.198;2023-03-14T03:08:02;3.00;3.00;1.00
72031;PMS5003;49185;42.320;23.198;2023-03-14T03:10:28;4.25;4.00;2.00
72031;PMS5003;49185;42.320;23.198;2023-03-14T03:12:54;5.25;5.25;2.00
72031;PMS5003;49185;42.320;23.198;2023-03-14T03:15:20;6.00;5.00;2.00
72031;PMS5003;49185;42.320;23.198;2023-03-14T03:17:45;5.67;5.00;3.00
72031;PMS5003;49185;42.320;23.198;2023-03-14T03:20:10;6.00;5.00;2.33
72031;PMS5003;49185;42.320;23.198;2023-03-14T03:22:36;5.00;5.00;2.00
72031;PMS5003;49185;42.320;23.198;2023-03-14T03:25:02;6.00;6.00;2.00
72031;PMS5003;49185;42.320;23.198;2023-03-14T03:27:30;5.00;4.00;1.00
72031;PMS5003;49185;42.320;23.198;2023-03-14T03:29:57;5.25;4.25;1.00
72031;PMS5003;49185;42.320;23.198;2023-03-14T03:32:23;6.00;6.00;2.00
72031;PMS5003;49185;42.320;23.198;2023-03-14T03:34:48;6.00;5.00;1.00
72031;PMS5003;49185;42.320;23.198;2023-03-14T03:37:14;5.33;4.00;1.00
72031;PMS5003;49185;42.320;23.198;2023-03-14T03:39:39;6.00;4.00;2.00
72031;PMS5003;49185;42.320;23.198;2023-03-14T03:42:04;7.00;6.00;2.00
72031;PMS5003;49185;42.320;23.198;2023-03-14T03:44:30;6.00;6.00;2.00
72031;PMS5003;49185;42.320;23.198;2023-03-14T03:46:55;7.00;7.00;3.00
72031;PMS5003;49185;42.320;23.198;2023-03-14T03:49:20;12.33;11.33;4.33
72031;PMS5003;49185;42.320;23.198;2023-03-14T03:51:46;13.67;11.00;4.00
72031;PMS5003;49185;42.320;23.198;2023-03-14T03:54:11;12.00;9.00;3.00
72031;PMS5003;49185;42.320;23.198;2023-03-14T03:56:37;15.33;14.33;6.33
72031;PMS5003;49185;42.320;23.198;2023-03-14T03:59:02;19.33;18.33;10.00
72031;PMS5003;49185;42.320;23.198;2023-03-14T04:01:30;21.50;19.50;10.00
72031;PMS5003;49185;42.320;23.198;2023-03-14T04:03:55;18.33;18.00;9.00
72031;PMS5003;49185;42.320;23.198;2023-03-14T04:06:21;18.00;16.00;7.00
72031;PMS5003;49185;42.320;23.198;2023-03-14T04:08:46;16.00;15.00;6.00
72031;PMS5003;49185;42.320;23.198;2023-03-14T04:11:12;15.00;14.00;6.00
72031;PMS5003;49185;42.320;23.198;2023-03-14T04:13:37;17.33;16.67;8.00
72031;PMS5003;49185;42.320;23.198;2023-03-14T04:16:02;17.00;15.00;6.00
72031;PMS5003;49185;42.320;23.198;2023-03-14T04:18:28;17.00;15.00;5.00
72031;PMS5003;49185;42.320;23.198;2023-03-14T04:20:54;12.00;12.00;5.00
72031;PMS5003;49185;42.320;23.198;2023-03-14T04:23:21;8.00;8.00;3.00
72031;PMS5003;49185;42.320;23.198;2023-03-14T04:25:47;9.00;7.75;4.00
72031;PMS5003;49185;42.320;23.198;2023-03-14T04:28:13;11.00;9.67;4.33
72031;PMS5003;49185;42.320;23.198;2023-03-14T04:30:38;13.33;11.00;5.00
72031;PMS5003;49185;42.320;23.198;2023-03-14T04:33:03;13.00;10.67;5.00
72031;PMS5003;49185;42.320;23.198;2023-03-14T04:35:32;9.00;7.00;3.00
72031;PMS5003;49185;42.320;23.198;2023-03-14T04:37:58;11.00;8.75;4.75
72031;PMS5003;49185;42.320;23.198;2023-03-14T04:40:23;9.00;8.33;5.00
72031;PMS5003;49185;42.320;23.198;2023-03-14T04:42:49;9.00;8.00;3.00
72031;PMS5003;49185;42.320;23.198;2023-03-14T04:45:14;5.00;4.33;2.00
72031;PMS5003;49185;42.320;23.198;2023-03-14T04:47:39;4.33;4.00;3.00
72031;PMS5003;49185;42.320;23.198;2023-03-14T04:50:05;6.00;6.00;2.00
72031;PMS5003;49185;42.320;23.198;2023-03-14T04:52:31;6.00;6.00;1.00
72031;PMS5003;49185;42.320;23.198;2023-03-14T04:54:56;8.33;7.67;2.33
72031;PMS5003;49185;42.320;23.198;2023-03-14T04:57:21;12.00;11.33;5.00
72031;PMS5003;49185;42.320;23.198;2023-03-14T04:59:47;27.67;23.67;12.00
72031;PMS5003;49185;42.320;23.198;2023-03-14T05:02:12;46.00;35.67;19.33
72031;PMS5003;49185;42.320;23.198;2023-03-14T05:04:38;43.33;33.00;19.00
72031;PMS5003;49185;42.320;23.198;2023-03-14T05:07:03;36.33;28.00;16.33
72031;PMS5003;49185;42.320;23.198;2023-03-14T05:09:28;26.33;22.67;13.00
72031;PMS5003;49185;42.320;23.198;2023-03-14T05:11:56;19.00;18.00;9.00
72031;PMS5003;49185;42.320;23.198;2023-03-14T05:14:22;24.00;19.33;11.67
72031;PMS5003;49185;42.320;23.198;2023-03-14T05:16:47;25.00;21.00;13.00
72031;PMS5003;49185;42.320;23.198;2023-03-14T05:19:13;21.00;18.00;11.00
72031;PMS5003;49185;42.320;23.198;2023-03-14T05:21:38;18.00;16.67;8.00
72031;PMS5003;49185;42.320;23.198;2023-03-14T05:24:04;14.00;14.00;5.00
72031;PMS5003;49185;42.320;23.198;2023-03-14T05:26:29;14.00;13.33;6.33
72031;PMS5003;49185;42.320;23.198;2023-03-14T05:28:55;14.00;13.00;6.00
72031;PMS5003;49185;42.320;23.198;2023-03-14T05:31:20;13.00;13.00;6.00
72031;PMS5003;49185;42.320;23.198;2023-03-14T05:33:46;16.00;13.33;5.33
72031;PMS5003;49185;42.320;23.198;2023-03-14T05:36:11;15.33;13.00;4.00
72031;PMS5003;49185;42.320;23.198;2023-03-14T05:38:37;16.00;16.00;5.50
72031;PMS5003;49185;42.320;23.198;2023-03-14T05:41:03;13.67;13.67;6.00
72031;PMS5003;49185;42.320;23.198;2023-03-14T05:43:28;13.67;13.67;6.00
72031;PMS5003;49185;42.320;23.198;2023-03-14T05:45:54;14.00;14.00;6.33
72031;PMS5003;49185;42.320;23.198;2023-03-14T05:48:19;16.00;15.00;7.00
72031;PMS5003;49185;42.320;23.198;2023-03-14T05:50:45;18.00;17.00;8.33
72031;PMS5003;49185;42.320;23.198;2023-03-14T05:53:10;17.67;16.00;7.00
72031;PMS5003;49185;42.320;23.198;2023-03-14T05:55:35;19.00;17.00;7.00
72031;PMS5003;49185;42.320;23.198;2023-03-14T05:58:01;18.33;16.33;9.00
72031;PMS5003;49185;42.320;23.198;2023-03-14T06:00:26;19.00;18.00;8.00
72031;PMS5003;49185;42.320;23.198;2023-03-14T06:02:52;17.00;16.00;7.33
72031;PMS5003;49185;42.320;23.198;2023-03-14T06:05:17;17.33;15.67;7.33
72031;PMS5003;49185;42.320;23.198;2023-03-14T06:07:42;18.00;17.00;6.00
72031;PMS5003;49185;42.320;23.198;2023-03-14T06:10:08;16.33;15.33;5.00
72031;PMS5003;49185;42.320;23.198;2023-03-14T06:12:34;18.00;17.00;6.00
72031;PMS5003;49185;42.320;23.198;2023-03-14T06:14:59;16.33;16.00;7.00
72031;PMS5003;49185;42.320;23.198;2023-03-14T06:17:25;16.33;16.00;6.00
72031;PMS5003;49185;42.320;23.198;2023-03-14T06:19:50;14.33;12.00;5.00
72031;PMS5003;49185;42.320;23.198;2023-03-14T06:22:16;15.00;13.00;5.00
72031;PMS5003;49185;42.320;23.198;2023-03-14T06:24:41;15.33;13.67;7.00
72031;PMS5003;49185;42.320;23.198;2023-03-14T06:27:06;16.67;15.00;6.00
72031;PMS5003;49185;42.320;23.198;2023-03-14T06:29:32;15.33;15.00;6.00
72031;PMS5003;49185;42.320;23.198;2023-03-14T06:31:57;14.00;14.00;5.00
72031;PMS5003;49185;42.320;23.198;2023-03-14T06:34:23;14.00;14.00;5.33
72031;PMS5003;49185;42.320;23.198;2023-03-14T06:36:48;12.00;12.00;6.00
72031;PMS5003;49185;42.320;23.198;2023-03-14T06:39:14;13.00;12.33;6.00
72031;PMS5003;49185;42.320;23.198;2023-03-14T06:41:39;13.33;12.00;5.33
72031;PMS5003;49185;42.320;23.198;2023-03-14T06:44:04;13.33;12.33;6.33
72031;PMS5003;49185;42.320;23.198;2023-03-14T06:46:31;14.00;13.00;7.00
72031;PMS5003;49185;42.320;23.198;2023-03-14T06:48:56;14.00;12.00;6.00
72031;PMS5003;49185;42.320;23.198;2023-03-14T06:51:22;14.00;12.00;6.00
72031;PMS5003;49185;42.320;23.198;2023-03-14T06:53:47;13.00;12.00;6.33
72031;PMS5003;49185;42.320;23.198;2023-03-14T06:56:13;13.67;12.00;5.00
72031;PMS5003;49185;42.320;23.198;2023-03-14T06:58:38;16.00;13.00;6.00
72031;PMS5003;49185;42.320;23.198;2023-03-14T07:01:04;17.67;16.00;6.00
72031;PMS5003;49185;42.320;23.198;2023-03-14T07:03:30;21.00;18.00;9.33
72031;PMS5003;49185;42.320;23.198;2023-03-14T07:05:55;18.00;17.67;9.33
72031;PMS5003;49185;42.320;23.198;2023-03-14T07:08:21;18.00;18.00;7.00
72031;PMS5003;49185;42.320;23.198;2023-03-14T07:10:46;19.00;18.33;7.33
72031;PMS5003;49185;42.320;23.198;2023-03-14T07:13:11;19.67;18.00;10.33
72031;PMS5003;49185;42.320;23.198;2023-03-14T07:15:37;21.67;20.33;11.67
72031;PMS5003;49185;42.320;23.198;2023-03-14T07:18:02;23.33;21.00;12.33
72031;PMS5003;49185;42.320;23.198;2023-03-14T07:20:28;24.00;22.00;12.00
72031;PMS5003;49185;42.320;23.198;2023-03-14T07:22:53;20.00;17.33;9.00
72031;PMS5003;49185;42.320;23.198;2023-03-14T07:25:19;17.00;16.00;7.00
72031;PMS5003;49185;42.320;23.198;2023-03-14T07:27:44;15.00;15.00;5.00
72031;PMS5003;49185;42.320;23.198;2023-03-14T07:30:11;15.00;14.00;6.00
72031;PMS5003;49185;42.320;23.198;2023-03-14T07:32:37;15.50;13.00;6.00
72031;PMS5003;49185;42.320;23.198;2023-03-14T07:35:02;14.33;12.00;5.00
72031;PMS5003;49185;42.320;23.198;2023-03-14T07:37:28;15.25;13.00;6.00
72031;PMS5003;49185;42.320;23.198;2023-03-14T07:39:53;11.33;9.00;4.00
72031;PMS5003;49185;42.320;23.198;2023-03-14T07:42:19;13.33;13.33;6.33
72031;PMS5003;49185;42.320;23.198;2023-03-14T07:44:44;12.33;12.00;6.00
72031;PMS5003;49185;42.320;23.198;2023-03-14T07:47:10;13.00;11.00;5.00
72031;PMS5003;49185;42.320;23.198;2023-03-14T07:49:35;14.33;13.67;7.00
72031;PMS5003;49185;42.320;23.198;2023-03-14T07:52:00;14.00;14.00;6.00
72031;PMS5003;49185;42.320;23.198;2023-03-14T07:54:26;12.25;12.00;5.00
72031;PMS5003;49185;42.320;23.198;2023-03-14T07:56:52;10.00;9.00;4.00
72031;PMS5003;49185;42.320;23.198;2023-03-14T07:59:17;11.00;9.67;4.00
72031;PMS5003;49185;42.320;23.198;2023-03-14T08:01:43;8.00;8.00;4.00
72031;PMS5003;49185;42.320;23.198;2023-03-14T08:04:09;7.33;7.33;4.00
72031;PMS5003;49185;42.320;23.198;2023-03-14T08:06:35;9.00;9.00;6.00
72031;PMS5003;49185;42.320;23.198;2023-03-14T08:09:01;12.75;12.75;6.00
72031;PMS5003;49185;42.320;23.198;2023-03-14T08:11:27;15.00;14.00;7.00
72031;PMS5003;49185;42.320;23.198;2023-03-14T08:13:53;17.00;16.00;7.00
72031;PMS5003;49185;42.320;23.198;2023-03-14T08:16:18;19.00;18.00;8.00
72031;PMS5003;49185;42.320;23.198;2023-03-14T08:18:44;18.33;17.33;7.00
72031;PMS5003;49185;42.320;23.198;2023-03-14T08:21:13;17.75;17.50;7.25
72031;PMS5003;49185;42.320;23.198;2023-03-14T08:23:38;16.75;16.75;8.00
72031;PMS5003;49185;42.320;23.198;2023-03-14T08:26:04;14.00;14.00;8.00
72031;PMS5003;49185;42.320;23.198;2023-03-14T08:28:30;15.00;15.00;6.75
72031;PMS5003;49185;42.320;23.198;2023-03-14T08:30:56;15.67;14.00;8.00
72031;PMS5003;49185;42.320;23.198;2023-03-14T08:33:22;15.75;14.50;7.00
72031;PMS5003;49185;42.320;23.198;2023-03-14T08:35:47;16.00;15.00;7.00
72031;PMS5003;49185;42.320;23.198;2023-03-14T08:38:13;17.00;15.00;6.00
72031;PMS5003;49185;42.320;23.198;2023-03-14T08:40:38;14.00;12.00;6.00
72031;PMS5003;49185;42.320;23.198;2023-03-14T08:43:04;16.33;13.00;6.00
72031;PMS5003;49185;42.320;23.198;2023-03-14T08:45:29;16.33;14.33;7.00
72031;PMS5003;49185;42.320;23.198;2023-03-14T08:47:54;17.00;15.00;8.00
72031;PMS5003;49185;42.320;23.198;2023-03-14T08:50:20;18.00;14.67;7.67
72031;PMS5003;49185;42.320;23.198;2023-03-14T08:52:45;18.00;16.00;7.00
72031;PMS5003;49185;42.320;23.198;2023-03-14T08:55:11;17.67;15.00;7.33
72031;PMS5003;49185;42.320;23.198;2023-03-14T08:57:37;15.00;14.00;6.00
72031;PMS5003;49185;42.320;23.198;2023-03-14T09:00:03;12.00;11.00;5.00
72031;PMS5003;49185;42.320;23.198;2023-03-14T09:02:29;12.00;11.00;5.25
72031;PMS5003;49185;42.320;23.198;2023-03-14T09:04:55;14.00;13.00;7.00
72031;PMS5003;49185;42.320;23.198;2023-03-14T09:07:20;13.00;13.00;7.00
72031;PMS5003;49185;42.320;23.198;2023-03-14T09:09:46;13.00;13.00;5.67
72031;PMS5003;49185;42.320;23.198;2023-03-14T09:12:11;13.67;12.00;5.00
72031;PMS5003;49185;42.320;23.198;2023-03-14T09:14:37;14.00;12.67;5.33
72031;PMS5003;49185;42.320;23.198;2023-03-14T09:17:03;11.75;11.00;5.00
72031;PMS5003;49185;42.320;23.198;2023-03-14T09:19:29;10.00;10.00;5.00
72031;PMS5003;49185;42.320;23.198;2023-03-14T09:21:55;12.75;10.25;6.00
72031;PMS5003;49185;42.320;23.198;2023-03-14T09:24:21;11.00;9.00;5.00
72031;PMS5003;49185;42.320;23.198;2023-03-14T09:26:46;10.00;8.33;4.00
72031;PMS5003;49185;42.320;23.198;2023-03-14T09:29:12;9.00;9.00;5.00
72031;PMS5003;49185;42.320;23.198;2023-03-14T09:31:37;8.00;8.00;5.00
72031;PMS5003;49185;42.320;23.198;2023-03-14T09:34:02;11.67;11.00;5.00
72031;PMS5003;49185;42.320;23.198;2023-03-14T09:36:28;8.67;8.67;3.00
72031;PMS5003;49185;42.320;23.198;2023-03-14T09:38:53;10.00;10.00;4.00
72031;PMS5003;49185;42.320;23.198;2023-03-14T09:44:04;7.50;7.50;4.00
72031;PMS5003;49185;42.320;23.198;2023-03-14T09:46:34;8.25;8.00;4.50
72031;PMS5003;49185;42.320;23.198;2023-03-14T09:49:02;11.50;10.50;4.00
72031;PMS5003;49185;42.320;23.198;2023-03-14T09:51:28;7.25;6.00;2.00
72031;PMS5003;49185;42.320;23.198;2023-03-14T09:53:54;11.00;8.75;4.75
72031;PMS5003;49185;42.320;23.198;2023-03-14T09:56:23;11.00;10.00;5.00
72031;PMS5003;49185;42.320;23.198;2023-03-14T09:59:00;9.00;8.75;4.25
72031;PMS5003;49185;42.320;23.198;2023-03-14T10:01:29;8.00;8.00;5.00
72031;PMS5003;49185;42.320;23.198;2023-03-14T10:03:58;7.50;7.50;4.00
72031;PMS5003;49185;42.320;23.198;2023-03-14T10:06:29;9.00;8.00;4.00
72031;PMS5003;49185;42.320;23.198;2023-03-14T10:08:55;7.00;7.00;4.00
72031;PMS5003;49185;42.320;23.198;2023-03-14T10:11:22;7.00;7.00;4.00
72031;PMS5003;49185;42.320;23.198;2023-03-14T10:14:07;7.00;7.00;4.50
72031;PMS5003;49185;42.320;23.198;2023-03-14T10:16:36;11.00;11.00;6.50
72031;PMS5003;49185;42.320;23.198;2023-03-14T10:19:06;11.00;10.25;4.00
72031;PMS5003;49185;42.320;23.198;2023-03-14T10:21:36;7.25;5.00;2.00
72031;PMS5003;49185;42.320;23.198;2023-03-14T10:26:48;6.00;5.00;3.00
72031;PMS5003;49185;42.320;23.198;2023-03-14T10:29:17;6.25;6.25;3.00
72031;PMS5003;49185;42.320;23.198;2023-03-14T10:34:23;4.00;4.00;1.00
72031;PMS5003;49185;42.320;23.198;2023-03-14T10:36:57;3.75;3.00;1.00
72031;PMS5003;49185;42.320;23.198;2023-03-14T10:39:30;5.00;4.00;1.00
72031;PMS5003;49185;42.320;23.198;2023-03-14T10:42:03;4.00;4.00;1.00
72031;PMS5003;49185;42.320;23.198;2023-03-14T10:44:39;3.75;3.75;0.00
72031;PMS5003;49185;42.320;23.198;2023-03-14T10:47:12;3.25;3.25;0.00
72031;PMS5003;49185;42.320;23.198;2023-03-14T10:49:45;3.00;3.00;0.00
72031;PMS5003;49185;42.320;23.198;2023-03-14T10:52:17;5.00;5.00;0.00
72031;PMS5003;49185;42.320;23.198;2023-03-14T10:54:59;4.50;4.50;0.00
72031;PMS5003;49185;42.320;23.198;2023-03-14T10:57:26;3.00;3.00;0.00
72031;PMS5003;49185;42.320;23.198;2023-03-14T10:59:53;4.50;3.50;0.00
72031;PMS5003;49185;42.320;23.198;2023-03-14T11:07:39;5.00;5.00;3.00
72031;PMS5003;49185;42.320;23.198;2023-03-14T11:32:15;7.00;7.00;5.00
72031;PMS5003;49185;42.320;23.198;2023-03-14T11:35:42;5.00;5.00;2.00
72031;PMS5003;49185;42.320;23.198;2023-03-14T11:40:41;4.25;4.00;2.00
72031;PMS5003;49185;42.320;23.198;2023-03-14T11:43:15;4.00;4.00;2.00
72031;PMS5003;49185;42.320;23.198;2023-03-14T11:45:45;5.25;4.50;2.50
72031;PMS5003;49185;42.320;23.198;2023-03-14T11:50:59;5.00;4.00;2.00
72031;PMS5003;49185;42.320;23.198;2023-03-14T11:56:01;5.00;5.00;1.00
72031;PMS5003;49185;42.320;23.198;2023-03-14T11:58:29;4.33;4.00;3.00
72031;PMS5003;49185;42.320;23.198;2023-03-14T12:01:05;4.50;4.50;2.00
72031;PMS5003;49185;42.320;23.198;2023-03-14T12:03:40;7.00;7.00;3.25
72031;PMS5003;49185;42.320;23.198;2023-03-14T12:11:14;6.00;4.00;3.00
72031;PMS5003;49185;42.320;23.198;2023-03-14T12:13:47;5.00;4.25;2.00
72031;PMS5003;49185;42.320;23.198;2023-03-14T12:25:05;5.00;5.00;1.00
72031;PMS5003;49185;42.320;23.198;2023-03-14T12:30:15;7.75;7.00;3.00
72031;PMS5003;49185;42.320;23.198;2023-03-14T12:33:30;6.00;6.00;2.50
72031;PMS5003;49185;42.320;23.198;2023-03-14T12:35:38;6.00;6.00;2.00
72031;PMS5003;49185;42.320;23.198;2023-03-14T12:38:13;6.00;6.00;4.00
72031;PMS5003;49185;42.320;23.198;2023-03-14T12:41:19;7.00;6.50;3.75
72031;PMS5003;49185;42.320;23.198;2023-03-14T12:43:44;7.00;7.00;3.00
72031;PMS5003;49185;42.320;23.198;2023-03-14T12:51:36;7.50;6.00;2.00
72031;PMS5003;49185;42.320;23.198;2023-03-14T12:59:46;5.25;5.25;1.50
72031;PMS5003;49185;42.320;23.198;2023-03-14T13:02:24;6.00;6.00;2.00
72031;PMS5003;49185;42.320;23.198;2023-03-14T13:05:00;7.00;6.75;1.00
72031;PMS5003;49185;42.320;23.198;2023-03-14T13:12:41;8.00;8.00;5.00
72031;PMS5003;49185;42.320;23.198;2023-03-14T13:15:17;8.25;8.25;4.25
72031;PMS5003;49185;42.320;23.198;2023-03-14T13:17:56;8.00;7.00;4.00
72031;PMS5003;49185;42.320;23.198;2023-03-14T13:20:37;6.00;6.00;3.00
72031;PMS5003;49185;42.320;23.198;2023-03-14T13:23:25;6.00;5.00;2.00
72031;PMS5003;49185;42.320;23.198;2023-03-14T13:25:53;5.50;5.50;3.00
72031;PMS5003;49185;42.320;23.198;2023-03-14T13:28:19;4.25;4.00;3.00
72031;PMS5003;49185;42.320;23.198;2023-03-14T13:30:46;6.00;5.25;2.75
72031;PMS5003;49185;42.320;23.198;2023-03-14T13:33:18;4.00;4.00;2.00
72031;PMS5003;49185;42.320;23.198;2023-03-14T13:35:56;5.00;5.00;2.00
72031;PMS5003;49185;42.320;23.198;2023-03-14T13:38:26;11.50;10.00;5.00
72031;PMS5003;49185;42.320;23.198;2023-03-14T13:40:54;17.25;16.25;6.75
72031;PMS5003;49185;42.320;23.198;2023-03-14T13:43:31;14.25;11.25;4.25
72031;PMS5003;49185;42.320;23.198;2023-03-14T13:46:21;12.75;11.75;4.00
72031;PMS5003;49185;42.320;23.198;2023-03-14T13:48:49;6.50;6.25;3.00
72031;PMS5003;49185;42.320;23.198;2023-03-14T13:51:18;5.00;5.00;1.00
72031;PMS5003;49185;42.320;23.198;2023-03-14T13:53:49;4.50;4.50;2.00
72031;PMS5003;49185;42.320;23.198;2023-03-14T13:56:17;4.25;4.00;2.00
72031;PMS5003;49185;42.320;23.198;2023-03-14T13:58:44;4.00;4.00;3.00
72031;PMS5003;49185;42.320;23.198;2023-03-14T14:03:44;8.25;8.00;1.00
72031;PMS5003;49185;42.320;23.198;2023-03-14T14:08:51;3.00;2.00;1.00
72031;PMS5003;49185;42.320;23.198;2023-03-14T14:11:37;5.00;5.00;2.00
72031;PMS5003;49185;42.320;23.198;2023-03-14T14:16:56;2.00;2.00;0.00
72031;PMS5003;49185;42.320;23.198;2023-03-14T14:19:24;2.00;2.00;0.00
72031;PMS5003;49185;42.320;23.198;2023-03-14T14:21:52;3.75;3.75;0.00
72031;PMS5003;49185;42.320;23.198;2023-03-14T14:24:28;4.00;4.00;2.00
72031;PMS5003;49185;42.320;23.198;2023-03-14T14:26:59;6.00;4.75;2.00
72031;PMS5003;49185;42.320;23.198;2023-03-14T14:32:02;3.67;3.00;1.00
72031;PMS5003;49185;42.320;23.198;2023-03-14T14:34:28;5.00;5.00;1.00
72031;PMS5003;49185;42.320;23.198;2023-03-14T14:36:54;9.67;9.67;4.67
72031;PMS5003;49185;42.320;23.198;2023-03-14T14:39:20;16.00;16.00;7.00
72031;PMS5003;49185;42.320;23.198;2023-03-14T14:41:51;14.00;9.25;3.00
72031;PMS5003;49185;42.320;23.198;2023-03-14T14:44:28;9.50;6.00;3.00
72031;PMS5003;49185;42.320;23.198;2023-03-14T14:46:58;4.00;4.00;2.00
72031;PMS5003;49185;42.320;23.198;2023-03-14T14:49:30;6.50;5.50;3.00
72031;PMS5003;49185;42.320;23.198;2023-03-14T14:52:02;6.00;5.00;1.00
72031;PMS5003;49185;42.320;23.198;2023-03-14T14:54:33;4.00;3.00;1.00
72031;PMS5003;49185;42.320;23.198;2023-03-14T14:57:03;3.00;3.00;0.00
72031;PMS5003;49185;42.320;23.198;2023-03-14T14:59:31;5.00;4.00;0.00
72031;PMS5003;49185;42.320;23.198;2023-03-14T15:02:00;3.00;3.00;0.00
72031;PMS5003;49185;42.320;23.198;2023-03-14T15:04:29;2.50;2.50;0.00
72031;PMS5003;49185;42.320;23.198;2023-03-14T15:06:56;3.00;3.00;0.00
72031;PMS5003;49185;42.320;23.198;2023-03-14T15:09:21;4.00;4.00;0.00
72031;PMS5003;49185;42.320;23.198;2023-03-14T15:11:47;4.33;3.33;0.00
72031;PMS5003;49185;42.320;23.198;2023-03-14T15:14:13;4.25;4.25;1.00
72031;PMS5003;49185;42.320;23.198;2023-03-14T15:16:39;5.67;5.67;1.67
72031;PMS5003;49185;42.320;23.198;2023-03-14T15:19:09;14.50;14.00;7.00
72031;PMS5003;49185;42.320;23.198;2023-03-14T15:21:40;10.00;8.75;4.00
72031;PMS5003;49185;42.320;23.198;2023-03-14T15:24:07;8.33;8.33;4.00
72031;PMS5003;49185;42.320;23.198;2023-03-14T15:26:34;10.00;9.75;4.25
72031;PMS5003;49185;42.320;23.198;2023-03-14T15:28:59;9.00;9.00;3.00
72031;PMS5003;49185;42.320;23.198;2023-03-14T15:31:25;7.67;7.00;3.67
72031;PMS5003;49185;42.320;23.198;2023-03-14T15:33:50;5.00;5.00;2.00